createdAt,value
2018-12-07T00:00:38.832Z,8.89
2018-12-07T00:01:46.902Z,8.92
2018-12-07T00:02:54.941Z,8.95
2018-12-07T00:04:03.000Z,8.91
2018-12-07T00:05:11.065Z,8.86
2018-12-07T00:06:19.127Z,8.83
2018-12-07T00:07:27.192Z,8.91
2018-12-07T00:08:37.023Z,8.83
2018-12-07T00:09:43.319Z,8.96
2018-12-07T00:10:51.352Z,8.84
2018-12-07T00:11:59.512Z,8.86
2018-12-07T00:13:07.536Z,8.83
2018-12-07T00:14:15.565Z,8.81
2018-12-07T00:15:23.622Z,8.83
2018-12-07T00:16:31.658Z,8.94
2018-12-07T00:17:39.754Z,8.80
2018-12-07T00:18:47.807Z,8.81
2018-12-07T00:19:55.902Z,8.83
2018-12-07T00:21:03.947Z,8.86
2018-12-07T00:22:11.994Z,8.84
2018-12-07T00:23:20.040Z,8.87
2018-12-07T00:24:28.147Z,8.87
2018-12-07T00:25:36.197Z,8.76
2018-12-07T00:26:44.245Z,8.77
2018-12-07T00:27:52.295Z,8.83
2018-12-07T00:29:00.372Z,8.81
2018-12-07T00:30:08.430Z,8.80
2018-12-07T00:31:16.463Z,8.86
2018-12-07T00:32:24.514Z,8.89
2018-12-07T00:33:32.599Z,8.89
2018-12-07T00:34:40.644Z,8.86
2018-12-07T00:35:48.726Z,8.86
2018-12-07T00:36:56.794Z,8.91
2018-12-07T00:38:04.859Z,8.92
2018-12-07T00:39:12.911Z,8.92
2018-12-07T00:40:20.940Z,8.95
2018-12-07T00:41:29.030Z,8.96
2018-12-07T00:42:37.091Z,8.81
2018-12-07T00:43:45.132Z,8.92
2018-12-07T00:44:53.229Z,8.86
2018-12-07T00:46:01.257Z,8.83
2018-12-07T00:47:09.344Z,8.83
2018-12-07T00:48:17.388Z,8.94
2018-12-07T00:49:25.452Z,8.81
2018-12-07T00:50:33.528Z,8.92
2018-12-07T00:51:41.562Z,8.91
2018-12-07T00:52:49.633Z,8.86
2018-12-07T00:53:57.705Z,8.87
2018-12-07T00:55:05.752Z,8.94
2018-12-07T00:56:13.829Z,8.91
2018-12-07T00:57:21.872Z,8.91
2018-12-07T00:58:29.971Z,8.91
2018-12-07T00:59:38.000Z,8.94
2018-12-07T01:00:46.078Z,8.92
2018-12-07T01:01:54.132Z,8.95
2018-12-07T01:03:02.215Z,8.89
2018-12-07T01:04:10.247Z,8.89
2018-12-07T01:05:18.314Z,8.89
2018-12-07T01:06:26.379Z,8.89
2018-12-07T01:07:34.453Z,8.91
2018-12-07T01:08:42.491Z,8.92
2018-12-07T01:09:50.558Z,8.96
2018-12-07T01:10:58.620Z,8.94
2018-12-07T01:12:06.698Z,8.95
2018-12-07T01:13:14.736Z,8.92
2018-12-07T01:14:22.795Z,8.94
2018-12-07T01:15:30.893Z,8.83
2018-12-07T01:16:38.939Z,8.81
2018-12-07T01:17:46.999Z,8.84
2018-12-07T01:18:55.055Z,8.84
2018-12-07T01:20:03.105Z,8.76
2018-12-07T01:21:11.158Z,8.81
2018-12-07T01:22:19.231Z,8.86
2018-12-07T01:23:27.300Z,8.83
2018-12-07T01:24:35.354Z,8.86
2018-12-07T01:25:43.417Z,8.92
2018-12-07T01:26:51.478Z,8.94
2018-12-07T01:27:59.530Z,8.96
2018-12-07T01:29:07.605Z,8.89
2018-12-07T01:30:15.640Z,8.92
2018-12-07T01:31:23.703Z,9.04
2018-12-07T01:32:31.774Z,8.98
2018-12-07T01:33:39.833Z,8.91
2018-12-07T01:34:47.910Z,8.91
2018-12-07T01:35:55.963Z,8.99
2018-12-07T01:37:04.020Z,8.95
2018-12-07T01:38:12.085Z,8.95
2018-12-07T01:39:20.168Z,8.96
2018-12-07T01:40:28.224Z,8.94
2018-12-07T01:41:36.277Z,8.91
2018-12-07T01:42:44.332Z,8.94
2018-12-07T01:43:52.408Z,8.89
2018-12-07T01:45:00.457Z,8.96
2018-12-07T01:46:08.529Z,8.83
2018-12-07T01:47:16.585Z,8.84
2018-12-07T01:48:24.664Z,8.86
2018-12-07T01:49:32.697Z,8.91
2018-12-07T01:50:40.752Z,8.86
2018-12-07T01:51:48.831Z,8.89
2018-12-07T01:52:56.897Z,8.84
2018-12-07T01:54:04.933Z,8.96
2018-12-07T01:55:13.007Z,8.91
2018-12-07T01:56:21.080Z,8.96
2018-12-07T01:57:29.128Z,8.86
2018-12-07T01:58:37.190Z,8.86
2018-12-07T01:59:45.243Z,8.92
2018-12-07T02:00:53.304Z,8.89
2018-12-07T02:02:01.387Z,8.77
2018-12-07T02:03:09.423Z,8.92
2018-12-07T02:04:17.466Z,8.81
2018-12-07T02:05:25.579Z,8.87
2018-12-07T02:06:33.609Z,8.89
2018-12-07T02:07:41.672Z,8.86
2018-12-07T02:08:49.763Z,8.86
2018-12-07T02:09:57.800Z,8.84
2018-12-07T02:11:05.861Z,8.83
2018-12-07T02:12:13.969Z,8.86
2018-12-07T02:13:21.987Z,8.84
2018-12-07T02:14:30.040Z,8.87
2018-12-07T02:15:38.099Z,8.80
2018-12-07T02:16:46.160Z,8.91
2018-12-07T02:17:54.250Z,8.83
2018-12-07T02:19:02.277Z,8.81
2018-12-07T02:20:10.347Z,8.83
2018-12-07T02:21:18.430Z,8.83
2018-12-07T02:22:26.470Z,8.89
2018-12-07T02:23:34.544Z,8.83
2018-12-07T02:24:42.605Z,8.89
2018-12-07T02:25:50.647Z,8.84
2018-12-07T02:26:58.716Z,8.86
2018-12-07T02:28:06.798Z,8.91
2018-12-07T02:29:14.859Z,8.83
2018-12-07T02:30:22.912Z,8.86
2018-12-07T02:31:30.954Z,8.89
2018-12-07T02:32:39.010Z,8.86
2018-12-07T02:33:47.120Z,8.86
2018-12-07T02:34:55.149Z,8.79
2018-12-07T02:36:03.228Z,8.84
2018-12-07T02:37:11.258Z,8.84
2018-12-07T02:38:19.338Z,8.83
2018-12-07T02:39:27.397Z,8.84
2018-12-07T02:40:35.454Z,8.83
2018-12-07T02:41:43.507Z,8.84
2018-12-07T02:42:51.532Z,8.95
2018-12-07T02:43:59.667Z,8.81
2018-12-07T02:45:07.724Z,8.86
2018-12-07T02:46:15.754Z,8.84
2018-12-07T02:47:23.820Z,8.92
2018-12-07T02:48:31.877Z,8.94
2018-12-07T02:49:39.962Z,8.92
2018-12-07T02:50:48.001Z,8.92
2018-12-07T02:51:56.084Z,8.84
2018-12-07T02:53:04.218Z,8.84
2018-12-07T02:54:12.198Z,8.95
2018-12-07T02:55:20.242Z,8.86
2018-12-07T02:56:28.311Z,8.80
2018-12-07T02:57:36.376Z,8.83
2018-12-07T02:58:44.413Z,8.86
2018-12-07T02:59:52.488Z,8.83
2018-12-07T03:01:00.559Z,8.83
2018-12-07T03:02:08.619Z,8.81
2018-12-07T03:03:16.664Z,8.83
2018-12-07T03:04:24.729Z,8.81
2018-12-07T03:05:32.821Z,8.86
2018-12-07T03:06:40.972Z,8.89
2018-12-07T03:07:48.907Z,8.86
2018-12-07T03:08:56.994Z,8.84
2018-12-07T03:10:05.043Z,8.84
2018-12-07T03:11:13.112Z,8.89
2018-12-07T03:12:21.145Z,8.77
2018-12-07T03:13:29.225Z,8.77
2018-12-07T03:14:37.291Z,8.80
2018-12-07T03:15:45.351Z,8.79
2018-12-07T03:16:53.395Z,8.84
2018-12-07T03:18:01.460Z,8.80
2018-12-07T03:19:09.598Z,8.73
2018-12-07T03:20:17.617Z,8.81
2018-12-07T03:21:25.634Z,8.79
2018-12-07T03:22:33.692Z,8.73
2018-12-07T03:23:41.771Z,8.79
2018-12-07T03:24:49.832Z,8.76
2018-12-07T03:25:57.915Z,8.70
2018-12-07T03:27:05.966Z,8.65
2018-12-07T03:28:14.012Z,8.62
2018-12-07T03:29:22.059Z,8.71
2018-12-07T03:30:30.122Z,8.68
2018-12-07T03:31:38.223Z,8.73
2018-12-07T03:32:46.283Z,8.66
2018-12-07T03:33:54.305Z,8.74
2018-12-07T03:35:02.403Z,8.73
2018-12-07T03:36:10.454Z,8.71
2018-12-07T03:37:18.528Z,8.68
2018-12-07T03:38:26.572Z,8.76
2018-12-07T03:39:34.627Z,8.73
2018-12-07T03:40:42.672Z,8.74
2018-12-07T03:41:50.732Z,8.74
2018-12-07T03:42:58.810Z,8.68
2018-12-07T03:44:06.898Z,8.70
2018-12-07T03:45:14.947Z,8.79
2018-12-07T03:46:23.001Z,8.76
2018-12-07T03:47:31.085Z,8.73
2018-12-07T03:48:39.105Z,8.73
2018-12-07T03:49:47.185Z,8.76
2018-12-07T03:50:55.252Z,8.77
2018-12-07T03:52:03.300Z,8.71
2018-12-07T03:53:11.339Z,8.71
2018-12-07T03:54:19.418Z,8.71
2018-12-07T03:55:27.498Z,8.77
2018-12-07T03:56:35.575Z,8.73
2018-12-07T03:57:43.604Z,8.80
2018-12-07T03:58:51.675Z,8.79
2018-12-07T03:59:59.736Z,8.76
2018-12-07T04:01:07.813Z,8.80
2018-12-07T04:02:15.855Z,8.84
2018-12-07T04:03:23.921Z,8.81
2018-12-07T04:04:31.997Z,8.80
2018-12-07T04:05:40.043Z,8.80
2018-12-07T04:06:48.122Z,8.79
2018-12-07T04:07:56.171Z,8.86
2018-12-07T04:09:04.230Z,8.83
2018-12-07T04:10:12.346Z,8.70
2018-12-07T04:11:20.356Z,8.77
2018-12-07T04:12:28.401Z,8.79
2018-12-07T04:13:36.469Z,8.83
2018-12-07T04:14:44.528Z,8.76
2018-12-07T04:15:52.581Z,8.81
2018-12-07T04:17:00.631Z,8.79
2018-12-07T04:18:08.691Z,8.79
2018-12-07T04:19:16.778Z,8.83
2018-12-07T04:20:24.850Z,8.84
2018-12-07T04:21:32.897Z,8.80
2018-12-07T04:22:40.952Z,8.83
2018-12-07T04:23:49.023Z,8.74
2018-12-07T04:24:57.055Z,8.83
2018-12-07T04:26:05.132Z,8.83
2018-12-07T04:27:13.201Z,8.71
2018-12-07T04:28:21.232Z,8.68
2018-12-07T04:29:29.327Z,8.76
2018-12-07T04:30:37.459Z,8.79
2018-12-07T04:31:45.447Z,8.81
2018-12-07T04:32:53.522Z,8.73
2018-12-07T04:34:01.545Z,8.73
2018-12-07T04:35:09.723Z,8.66
2018-12-07T04:36:17.665Z,8.70
2018-12-07T04:37:25.741Z,8.74
2018-12-07T04:38:33.814Z,8.81
2018-12-07T04:39:41.858Z,8.66
2018-12-07T04:40:49.947Z,8.62
2018-12-07T04:41:57.996Z,8.74
2018-12-07T04:43:06.066Z,8.65
2018-12-07T04:44:14.107Z,8.62
2018-12-07T04:45:22.174Z,8.76
2018-12-07T04:46:30.250Z,8.65
2018-12-07T04:47:38.296Z,8.66
2018-12-07T04:48:46.342Z,8.63
2018-12-07T04:49:54.422Z,8.79
2018-12-07T04:51:02.559Z,8.62
2018-12-07T04:52:10.534Z,8.70
2018-12-07T04:53:18.610Z,8.70
2018-12-07T04:54:26.653Z,8.80
2018-12-07T04:55:34.713Z,8.76
2018-12-07T04:56:42.813Z,8.73
2018-12-07T04:57:50.863Z,8.79
2018-12-07T04:58:58.902Z,8.76
2018-12-07T05:00:06.970Z,8.84
2018-12-07T05:01:15.029Z,8.81
2018-12-07T05:02:23.105Z,8.80
2018-12-07T05:03:31.140Z,8.76
2018-12-07T05:04:39.229Z,8.83
2018-12-07T05:05:47.264Z,8.81
2018-12-07T05:06:55.359Z,8.81
2018-12-07T05:08:03.436Z,8.87
2018-12-07T05:09:11.458Z,8.83
2018-12-07T05:10:19.531Z,8.83
2018-12-07T05:11:27.573Z,8.83
2018-12-07T05:12:35.661Z,8.83
2018-12-07T05:13:43.705Z,8.84
2018-12-07T05:14:51.748Z,8.86
2018-12-07T05:15:59.823Z,8.79
2018-12-07T05:17:07.894Z,8.79
2018-12-07T05:18:15.950Z,8.84
2018-12-07T05:19:24.026Z,8.81
2018-12-07T05:20:32.047Z,8.83
2018-12-07T05:21:40.130Z,8.89
2018-12-07T05:22:48.218Z,8.84
2018-12-07T05:23:56.271Z,8.89
2018-12-07T05:25:04.299Z,8.86
2018-12-07T05:26:12.384Z,8.83
2018-12-07T05:27:20.437Z,8.81
2018-12-07T05:28:28.491Z,8.81
2018-12-07T05:29:36.565Z,8.83
2018-12-07T05:30:44.610Z,8.91
2018-12-07T05:31:52.680Z,8.86
2018-12-07T05:33:00.731Z,8.80
2018-12-07T05:34:08.793Z,8.86
2018-12-07T05:35:16.856Z,8.83
2018-12-07T05:36:24.934Z,8.92
2018-12-07T05:37:32.991Z,8.84
2018-12-07T05:38:41.105Z,8.87
2018-12-07T05:39:49.649Z,8.94
2018-12-07T05:40:57.181Z,8.92
2018-12-07T05:42:05.234Z,8.96
2018-12-07T05:43:13.302Z,8.96
2018-12-07T05:44:21.349Z,8.92
2018-12-07T05:45:29.427Z,8.94
2018-12-07T05:46:37.479Z,8.98
2018-12-07T05:47:45.548Z,8.92
2018-12-07T05:48:53.734Z,8.96
2018-12-07T05:50:01.698Z,8.94
2018-12-07T05:51:09.727Z,8.96
2018-12-07T05:52:17.786Z,8.95
2018-12-07T05:53:25.829Z,8.92
2018-12-07T05:54:34.144Z,8.87
2018-12-07T05:55:41.978Z,8.83
2018-12-07T05:56:50.036Z,8.94
2018-12-07T05:57:58.089Z,8.92
2018-12-07T05:59:06.156Z,8.94
2018-12-07T06:00:14.203Z,8.92
2018-12-07T06:01:22.267Z,8.96
2018-12-07T06:02:30.303Z,8.98
2018-12-07T06:03:38.496Z,8.99
2018-12-07T06:04:46.536Z,8.98
2018-12-07T06:05:54.519Z,8.98
2018-12-07T06:07:02.583Z,9.04
2018-12-07T06:08:10.630Z,9.01
2018-12-07T06:09:18.721Z,8.95
2018-12-07T06:10:26.790Z,8.98
2018-12-07T06:11:34.847Z,8.92
2018-12-07T06:12:42.882Z,8.98
2018-12-07T06:13:51.145Z,8.92
2018-12-07T06:14:59.037Z,8.95
2018-12-07T06:16:07.661Z,8.92
2018-12-07T06:17:15.120Z,8.92
2018-12-07T06:18:23.186Z,8.98
2018-12-07T06:19:31.259Z,8.91
2018-12-07T06:20:39.315Z,8.94
2018-12-07T06:21:47.373Z,8.89
2018-12-07T06:22:55.452Z,8.96
2018-12-07T06:24:04.095Z,8.94
2018-12-07T06:25:11.621Z,8.96
2018-12-07T06:26:19.621Z,8.99
2018-12-07T06:27:27.685Z,8.98
2018-12-07T06:28:35.731Z,8.98
2018-12-07T06:29:43.797Z,8.99
2018-12-07T06:30:51.856Z,8.96
2018-12-07T06:31:59.920Z,8.98
2018-12-07T06:33:07.987Z,8.99
2018-12-07T06:34:16.056Z,8.98
2018-12-07T06:35:24.114Z,8.95
2018-12-07T06:36:32.164Z,9.01
2018-12-07T06:37:40.218Z,8.95
2018-12-07T06:38:48.288Z,8.96
2018-12-07T06:39:56.355Z,8.92
2018-12-07T06:41:04.423Z,8.95
2018-12-07T06:42:12.455Z,8.98
2018-12-07T06:43:20.535Z,8.98
2018-12-07T06:44:28.618Z,8.96
2018-12-07T06:45:36.645Z,9.01
2018-12-07T06:46:44.718Z,8.86
2018-12-07T06:47:52.750Z,8.96
2018-12-07T06:49:00.842Z,8.91
2018-12-07T06:50:08.918Z,8.95
2018-12-07T06:51:16.970Z,8.95
2018-12-07T06:52:25.017Z,8.96
2018-12-07T06:53:33.106Z,8.94
2018-12-07T06:54:41.134Z,9.02
2018-12-07T06:55:49.196Z,8.89
2018-12-07T06:56:57.250Z,8.86
2018-12-07T06:58:05.300Z,8.96
2018-12-07T06:59:13.405Z,8.96
2018-12-07T07:00:21.493Z,8.91
2018-12-07T07:01:29.501Z,8.94
2018-12-07T07:02:37.565Z,8.87
2018-12-07T07:03:45.664Z,8.96
2018-12-07T07:04:53.734Z,8.91
2018-12-07T07:06:02.462Z,8.92
2018-12-07T07:07:09.818Z,9.04
2018-12-07T07:08:17.887Z,8.91
2018-12-07T07:09:25.954Z,8.94
2018-12-07T07:10:33.988Z,8.86
2018-12-07T07:11:42.054Z,8.95
2018-12-07T07:12:50.121Z,8.98
2018-12-07T07:13:58.212Z,8.96
2018-12-07T07:15:06.240Z,8.95
2018-12-07T07:16:14.308Z,8.92
2018-12-07T07:17:22.353Z,8.87
2018-12-07T07:18:30.427Z,8.95
2018-12-07T07:19:38.502Z,8.91
2018-12-07T07:20:46.556Z,8.92
2018-12-07T07:21:54.593Z,8.92
2018-12-07T07:23:02.693Z,8.89
2018-12-07T07:24:10.738Z,8.92
2018-12-07T07:25:18.792Z,8.96
2018-12-07T07:26:26.834Z,8.96
2018-12-07T07:27:34.917Z,8.96
2018-12-07T07:28:43.005Z,8.94
2018-12-07T07:29:51.083Z,8.89
2018-12-07T07:30:59.093Z,8.94
2018-12-07T07:32:07.151Z,8.89
2018-12-07T07:33:15.227Z,8.95
2018-12-07T07:34:23.282Z,8.91
2018-12-07T07:35:31.340Z,8.91
2018-12-07T07:36:39.413Z,9.02
2018-12-07T07:37:47.489Z,9.01
2018-12-07T07:38:55.535Z,8.98
2018-12-07T07:40:03.597Z,9.01
2018-12-07T07:41:11.651Z,8.98
2018-12-07T07:42:19.728Z,8.94
2018-12-07T07:43:27.772Z,8.92
2018-12-07T07:44:35.823Z,8.96
2018-12-07T07:45:43.890Z,8.95
2018-12-07T07:46:51.954Z,8.92
2018-12-07T07:48:00.012Z,8.95
2018-12-07T07:49:08.105Z,9.04
2018-12-07T07:50:16.221Z,8.92
2018-12-07T07:51:24.202Z,8.95
2018-12-07T07:52:32.243Z,8.95
2018-12-07T07:53:40.320Z,9.02
2018-12-07T07:54:48.379Z,9.02
2018-12-07T07:55:56.447Z,8.96
2018-12-07T07:57:04.504Z,8.95
2018-12-07T07:58:12.579Z,8.89
2018-12-07T07:59:20.614Z,8.99
2018-12-07T08:00:28.696Z,8.94
2018-12-07T08:01:36.733Z,8.98
2018-12-07T08:02:44.820Z,9.05
2018-12-07T08:03:52.865Z,8.98
2018-12-07T08:05:00.929Z,9.05
2018-12-07T08:06:09.004Z,9.02
2018-12-07T08:07:17.069Z,9.01
2018-12-07T08:08:25.129Z,9.02
2018-12-07T08:09:33.191Z,9.01
2018-12-07T08:10:41.237Z,9.04
2018-12-07T08:11:49.305Z,9.05
2018-12-07T08:12:58.760Z,9.01
2018-12-07T08:14:05.430Z,9.05
2018-12-07T08:15:13.503Z,9.14
2018-12-07T08:16:21.606Z,9.17
2018-12-07T08:17:29.613Z,9.15
2018-12-07T08:18:37.665Z,9.11
2018-12-07T08:19:45.750Z,9.13
2018-12-07T08:20:53.817Z,9.08
2018-12-07T08:22:02.812Z,9.17
2018-12-07T08:23:14.595Z,9.15
2018-12-07T08:24:17.992Z,9.14
2018-12-07T08:25:26.035Z,9.20
2018-12-07T08:26:34.778Z,9.17
2018-12-07T08:27:43.941Z,9.20
2018-12-07T08:28:50.862Z,9.15
2018-12-07T08:29:58.313Z,9.28
2018-12-07T08:31:06.393Z,9.24
2018-12-07T08:32:14.404Z,9.18
2018-12-07T08:33:22.454Z,9.33
2018-12-07T08:34:30.554Z,9.29
2018-12-07T08:35:38.599Z,9.31
2018-12-07T08:36:46.657Z,9.23
2018-12-07T08:37:54.720Z,9.31
2018-12-07T08:39:02.792Z,9.36
2018-12-07T08:40:10.846Z,9.31
2018-12-07T08:41:18.894Z,9.33
2018-12-07T08:42:26.971Z,9.33
2018-12-07T08:43:35.017Z,9.35
2018-12-07T08:44:43.094Z,9.42
2018-12-07T08:45:51.142Z,9.36
2018-12-07T08:46:59.214Z,9.46
2018-12-07T08:48:07.304Z,9.40
2018-12-07T08:49:15.335Z,9.47
2018-12-07T08:50:23.402Z,9.50
2018-12-07T08:51:31.456Z,9.46
2018-12-07T08:52:39.539Z,9.48
2018-12-07T08:53:47.592Z,9.42
2018-12-07T08:54:55.638Z,9.47
2018-12-07T08:56:03.715Z,9.40
2018-12-07T08:57:11.790Z,9.46
2018-12-07T08:58:19.824Z,9.51
2018-12-07T08:59:27.908Z,9.51
2018-12-07T09:00:35.953Z,9.48
2018-12-07T09:01:44.015Z,9.51
2018-12-07T09:02:52.075Z,9.56
2018-12-07T09:04:00.144Z,9.51
2018-12-07T09:05:08.210Z,9.51
2018-12-07T09:06:16.270Z,9.61
2018-12-07T09:07:24.346Z,9.61
2018-12-07T09:08:32.413Z,9.58
2018-12-07T09:09:40.531Z,9.58
2018-12-07T09:10:48.522Z,9.58
2018-12-07T09:11:56.583Z,9.58
2018-12-07T09:13:04.621Z,9.53
2018-12-07T09:14:12.708Z,9.66
2018-12-07T09:15:20.760Z,9.61
2018-12-07T09:16:28.814Z,9.68
2018-12-07T09:17:36.881Z,9.68
2018-12-07T09:18:44.967Z,9.71
2018-12-07T09:19:53.007Z,9.71
2018-12-07T09:21:01.069Z,9.65
2018-12-07T09:22:09.122Z,9.68
2018-12-07T09:23:17.207Z,9.68
2018-12-07T09:24:25.261Z,9.71
2018-12-07T09:25:33.315Z,9.66
2018-12-07T09:26:41.372Z,9.71
2018-12-07T09:27:49.427Z,9.72
2018-12-07T09:28:57.504Z,9.72
2018-12-07T09:30:05.632Z,9.72
2018-12-07T09:31:13.635Z,9.75
2018-12-07T09:32:21.683Z,9.68
2018-12-07T09:33:29.740Z,9.65
2018-12-07T09:34:37.815Z,9.60
2018-12-07T09:35:45.875Z,9.66
2018-12-07T09:36:53.938Z,9.58
2018-12-07T09:38:01.995Z,9.58
2018-12-07T09:39:10.066Z,9.57
2018-12-07T09:40:18.144Z,9.64
2018-12-07T09:41:26.217Z,9.60
2018-12-07T09:42:34.263Z,9.57
2018-12-07T09:43:42.324Z,9.57
2018-12-07T09:44:50.393Z,9.60
2018-12-07T09:45:58.449Z,9.65
2018-12-07T09:47:06.503Z,9.57
2018-12-07T09:48:14.555Z,9.66
2018-12-07T09:49:22.651Z,9.58
2018-12-07T09:50:30.695Z,9.68
2018-12-07T09:51:38.754Z,9.68
2018-12-07T09:52:46.813Z,9.75
2018-12-07T09:53:54.860Z,9.74
2018-12-07T09:55:02.939Z,9.79
2018-12-07T09:56:10.948Z,9.79
2018-12-07T09:57:19.078Z,9.78
2018-12-07T09:58:27.122Z,9.76
2018-12-07T09:59:35.160Z,9.79
2018-12-07T10:00:43.491Z,9.91
2018-12-07T10:01:51.324Z,9.81
2018-12-07T10:02:59.365Z,9.83
2018-12-07T10:04:07.441Z,9.76
2018-12-07T10:05:15.500Z,9.79
2018-12-07T10:06:23.555Z,9.79
2018-12-07T10:07:21.669Z,9.86
2018-12-07T10:08:29.711Z,9.83
2018-12-07T10:09:37.786Z,9.79
2018-12-07T10:10:45.850Z,9.78
2018-12-07T10:11:53.914Z,9.76
2018-12-07T10:13:07.830Z,9.76
2018-12-07T10:14:10.025Z,9.81
2018-12-07T10:15:18.099Z,9.75
2018-12-07T10:16:26.154Z,9.81
2018-12-07T10:17:34.252Z,9.86
2018-12-07T10:18:42.283Z,9.87
2018-12-07T10:19:50.349Z,9.86
2018-12-07T10:20:58.395Z,9.83
2018-12-07T10:22:06.465Z,9.96
2018-12-07T10:23:14.520Z,9.96
2018-12-07T10:24:22.600Z,9.94
2018-12-07T10:25:30.673Z,10.05
2018-12-07T10:26:38.707Z,10.04
2018-12-07T10:27:46.770Z,10.17
2018-12-07T10:28:54.837Z,10.15
2018-12-07T10:30:02.909Z,10.08
2018-12-07T10:31:10.981Z,10.11
2018-12-07T10:32:19.034Z,10.22
2018-12-07T10:33:27.106Z,10.14
2018-12-07T10:34:35.143Z,10.25
2018-12-07T10:35:43.225Z,10.15
2018-12-07T10:36:51.339Z,10.30
2018-12-07T10:37:59.344Z,10.25
2018-12-07T10:39:07.407Z,10.33
2018-12-07T10:40:15.474Z,10.30
2018-12-07T10:41:23.531Z,10.38
2018-12-07T10:42:31.574Z,10.38
2018-12-07T10:43:39.645Z,10.38
2018-12-07T10:44:47.730Z,10.53
2018-12-07T10:45:55.790Z,10.52
2018-12-07T10:47:03.832Z,10.67
2018-12-07T10:48:11.907Z,10.61
2018-12-07T10:49:20.004Z,10.71
2018-12-07T10:50:28.030Z,10.67
2018-12-07T10:51:36.108Z,10.64
2018-12-07T10:52:44.232Z,10.70
2018-12-07T10:53:52.229Z,10.73
2018-12-07T10:55:00.276Z,10.82
2018-12-07T10:56:08.354Z,10.84
2018-12-07T10:57:16.416Z,10.86
2018-12-07T10:58:24.477Z,10.81
2018-12-07T10:59:32.533Z,10.84
2018-12-07T11:00:40.617Z,10.68
2018-12-07T11:01:48.679Z,10.63
2018-12-07T11:02:56.733Z,10.67
2018-12-07T11:04:04.789Z,10.55
2018-12-07T11:05:12.848Z,10.59
2018-12-07T11:06:20.929Z,10.56
2018-12-07T11:07:28.975Z,10.55
2018-12-07T11:08:37.046Z,10.56
2018-12-07T11:09:45.106Z,10.36
2018-12-07T11:10:53.166Z,10.32
2018-12-07T11:12:01.255Z,10.40
2018-12-07T11:13:09.293Z,10.30
2018-12-07T11:14:17.353Z,10.32
2018-12-07T11:15:25.423Z,10.38
2018-12-07T11:16:33.477Z,10.38
2018-12-07T11:17:41.537Z,10.38
2018-12-07T11:18:49.612Z,10.51
2018-12-07T11:19:57.665Z,10.45
2018-12-07T11:21:05.747Z,10.63
2018-12-07T11:22:13.830Z,10.56
2018-12-07T11:23:21.866Z,10.64
2018-12-07T11:24:29.931Z,10.56
2018-12-07T11:25:37.986Z,10.61
2018-12-07T11:26:46.057Z,10.52
2018-12-07T11:27:54.133Z,10.64
2018-12-07T11:29:02.187Z,10.63
2018-12-07T11:30:10.237Z,10.66
2018-12-07T11:31:18.309Z,10.66
2018-12-07T11:32:26.381Z,10.64
2018-12-07T11:33:34.433Z,10.51
2018-12-07T11:34:42.506Z,10.64
2018-12-07T11:35:50.557Z,10.61
2018-12-07T11:36:58.651Z,10.61
2018-12-07T11:38:06.702Z,10.66
2018-12-07T11:39:14.750Z,10.67
2018-12-07T11:40:22.816Z,10.73
2018-12-07T11:41:30.890Z,10.68
2018-12-07T11:42:38.984Z,10.76
2018-12-07T11:43:47.020Z,10.84
2018-12-07T11:44:55.070Z,10.84
2018-12-07T11:46:03.145Z,10.81
2018-12-07T11:47:11.182Z,10.79
2018-12-07T11:48:19.262Z,10.84
2018-12-07T11:49:27.340Z,10.84
2018-12-07T11:50:35.371Z,10.81
2018-12-07T11:51:43.465Z,11.00
2018-12-07T11:52:51.527Z,10.84
2018-12-07T11:53:59.583Z,10.97
2018-12-07T11:55:07.655Z,11.02
2018-12-07T11:56:15.707Z,11.04
2018-12-07T11:57:23.757Z,11.09
2018-12-07T11:58:31.847Z,11.06
2018-12-07T11:59:39.902Z,11.11
2018-12-07T12:00:47.975Z,11.07
2018-12-07T12:01:56.023Z,11.09
2018-12-07T12:03:04.069Z,11.03
2018-12-07T12:04:12.158Z,11.00
2018-12-07T12:05:20.223Z,11.00
2018-12-07T12:06:28.291Z,11.00
2018-12-07T12:07:36.356Z,11.03
2018-12-07T12:08:44.411Z,11.06
2018-12-07T12:09:52.467Z,11.00
2018-12-07T12:11:00.512Z,11.04
2018-12-07T12:12:08.589Z,10.94
2018-12-07T12:13:16.666Z,10.85
2018-12-07T12:14:24.748Z,11.00
2018-12-07T12:15:32.803Z,10.96
2018-12-07T12:16:40.879Z,11.06
2018-12-07T12:17:48.917Z,11.07
2018-12-07T12:18:56.981Z,11.11
2018-12-07T12:20:05.059Z,11.06
2018-12-07T12:21:13.101Z,11.10
2018-12-07T12:22:21.187Z,11.10
2018-12-07T12:23:29.241Z,11.10
2018-12-07T12:24:37.303Z,11.09
2018-12-07T12:25:45.333Z,11.09
2018-12-07T12:26:53.429Z,11.11
2018-12-07T12:28:01.499Z,11.10
2018-12-07T12:29:09.547Z,11.04
2018-12-07T12:30:17.923Z,10.96
2018-12-07T12:31:25.689Z,11.06
2018-12-07T12:32:33.742Z,11.00
2018-12-07T12:33:41.799Z,11.00
2018-12-07T12:34:49.868Z,11.02
2018-12-07T12:35:57.926Z,11.03
2018-12-07T12:37:06.008Z,11.03
2018-12-07T12:38:14.075Z,10.91
2018-12-07T12:39:22.129Z,10.84
2018-12-07T12:40:30.207Z,10.85
2018-12-07T12:41:38.241Z,10.82
2018-12-07T12:42:46.298Z,10.76
2018-12-07T12:43:54.393Z,10.73
2018-12-07T12:45:02.459Z,10.63
2018-12-07T12:46:10.510Z,10.81
2018-12-07T12:47:18.588Z,10.70
2018-12-07T12:48:26.610Z,10.76
2018-12-07T12:49:34.703Z,10.67
2018-12-07T12:50:42.738Z,10.71
2018-12-07T12:51:50.823Z,10.71
2018-12-07T12:52:58.887Z,10.79
2018-12-07T12:54:06.955Z,10.81
2018-12-07T12:55:15.018Z,10.74
2018-12-07T12:56:23.079Z,10.81
2018-12-07T12:57:31.110Z,10.68
2018-12-07T12:58:39.199Z,10.67
2018-12-07T12:59:47.245Z,10.73
2018-12-07T13:00:55.328Z,10.84
2018-12-07T13:02:03.396Z,10.76
2018-12-07T13:03:11.461Z,10.82
2018-12-07T13:04:19.529Z,10.88
2018-12-07T13:05:27.581Z,10.82
2018-12-07T13:06:35.633Z,10.89
2018-12-07T13:07:43.739Z,10.94
2018-12-07T13:08:51.746Z,10.85
2018-12-07T13:09:59.830Z,10.94
2018-12-07T13:11:07.884Z,10.94
2018-12-07T13:12:15.982Z,10.99
2018-12-07T13:13:24.024Z,11.03
2018-12-07T13:14:32.087Z,10.97
2018-12-07T13:15:40.144Z,11.00
2018-12-07T13:16:48.231Z,11.03
2018-12-07T13:17:56.315Z,11.06
2018-12-07T13:19:04.349Z,11.07
2018-12-07T13:20:12.409Z,11.10
2018-12-07T13:21:20.473Z,11.11
2018-12-07T13:22:28.527Z,11.07
2018-12-07T13:23:36.647Z,11.18
2018-12-07T13:24:44.662Z,11.11
2018-12-07T13:25:52.737Z,11.17
2018-12-07T13:27:00.795Z,11.27
2018-12-07T13:28:08.866Z,11.29
2018-12-07T13:29:16.921Z,11.33
2018-12-07T13:30:24.978Z,11.42
2018-12-07T13:31:33.048Z,11.51
2018-12-07T13:32:41.086Z,11.58
2018-12-07T13:33:49.167Z,11.58
2018-12-07T13:34:57.245Z,11.62
2018-12-07T13:36:05.304Z,11.64
2018-12-07T13:37:13.350Z,11.61
2018-12-07T13:38:21.428Z,11.51
2018-12-07T13:39:29.546Z,11.58
2018-12-07T13:40:39.028Z,11.51
2018-12-07T13:41:50.273Z,11.55
2018-12-07T13:42:53.842Z,11.55
2018-12-07T13:44:01.755Z,11.55
2018-12-07T13:45:09.825Z,11.46
2018-12-07T13:46:18.130Z,11.29
2018-12-07T13:47:26.162Z,11.33
2018-12-07T13:48:34.021Z,11.22
2018-12-07T13:49:42.152Z,11.14
2018-12-07T13:50:50.124Z,11.03
2018-12-07T13:51:58.247Z,10.99
2018-12-07T13:53:06.268Z,10.88
2018-12-07T13:54:14.396Z,10.82
2018-12-07T13:55:22.394Z,10.88
2018-12-07T13:56:30.613Z,10.79
2018-12-07T13:57:38.536Z,10.76
2018-12-07T13:58:46.581Z,10.73
2018-12-07T13:59:54.842Z,10.67
2018-12-07T14:01:02.796Z,10.67
2018-12-07T14:02:10.858Z,10.64
2018-12-07T14:03:18.853Z,10.55
2018-12-07T14:04:27.025Z,10.55
2018-12-07T14:05:34.979Z,10.45
2018-12-07T14:06:43.184Z,10.33
2018-12-07T14:07:51.144Z,10.38
2018-12-07T14:08:59.244Z,10.26
2018-12-07T14:10:07.245Z,10.20
2018-12-07T14:11:15.319Z,10.18
2018-12-07T14:12:23.391Z,10.20
2018-12-07T14:13:31.586Z,10.22
2018-12-07T14:14:39.499Z,10.25
2018-12-07T14:15:47.546Z,10.22
2018-12-07T14:16:55.673Z,10.09
2018-12-07T14:18:03.749Z,10.11
2018-12-07T14:19:11.851Z,10.25
2018-12-07T14:20:19.803Z,10.09
2018-12-07T14:21:27.830Z,10.18
2018-12-07T14:22:35.955Z,10.25
2018-12-07T14:23:44.005Z,10.14
2018-12-07T14:24:52.014Z,10.25
2018-12-07T14:26:00.140Z,10.20
2018-12-07T14:27:08.227Z,10.08
2018-12-07T14:28:16.263Z,10.18
2018-12-07T14:29:24.441Z,10.08
2018-12-07T14:30:32.396Z,10.12
2018-12-07T14:31:40.435Z,10.17
2018-12-07T14:32:48.532Z,10.04
2018-12-07T14:33:56.587Z,9.97
2018-12-07T14:35:04.732Z,10.07
2018-12-07T14:36:12.916Z,10.07
2018-12-07T14:37:20.768Z,10.05
2018-12-07T14:38:28.858Z,10.08
2018-12-07T14:39:36.969Z,10.05
2018-12-07T14:40:44.963Z,10.12
2018-12-07T14:41:53.172Z,10.04
2018-12-07T14:43:01.038Z,10.08
2018-12-07T14:44:09.297Z,10.02
2018-12-07T14:45:17.327Z,10.07
2018-12-07T14:46:25.312Z,9.96
2018-12-07T14:47:33.480Z,9.99
2018-12-07T14:48:41.510Z,9.94
2018-12-07T14:49:49.501Z,10.01
2018-12-07T14:50:57.467Z,10.02
2018-12-07T14:52:05.621Z,10.04
2018-12-07T14:53:13.676Z,10.05
2018-12-07T14:54:21.750Z,10.02
2018-12-07T14:55:30.025Z,10.04
2018-12-07T14:56:37.949Z,9.91